Wind From: 11-12-2017 06:00 Until: 12-12-2017 06:00 warning for: Wind Level: Orange info button

Power and phone distribution networks may be disrupted for relatively long periods., Roofs and chimneys can be damaged. , Tree branches may break. , Vehicles can be deported. , Traffic may be disrupted, particularly on secondary roads in forest areas. Limit your trips. , Limit your speed in highway driving, especially if you drive a vehicle or hitch sensitive to wind. , Do not go for walks in forests or along the coast., In town, be vigilant against possible falling objects., Do not work on roofs and do not touch any electrical line fallen on the ground., Store or secure sensitive objects to wind or likely to be damaged., Always install power generators outside buildings. 


Meteo18 Weather Cam more information Meteo18 Weather Cam


Thunder radar more information blitzortung!


Rain radar more information rain snow radar


Visit our other weather sites:

Template documentation
and downloads

And another site



Weather Underground History page Text

Daily Summary for May 20, 2017 Units:  Both    English   Metric
« Previous Day
Next Day »
Daily Weekly Monthly Yearly Custom
  High: Low: Average:
Temperature: 63.3 °F /  17.4 °C 45.7 °F /  7.6 °C 52.9 °F /  11.6 °C
Dew Point: 52.3 °F /  11.3 °C 44.4 °F /  6.9 °C 47.1 °F /  8.4 °C
Humidity: 96 % 53 % 83 %
Wind Speed: 12 mph /  19.3 km/h - 3.4 mph /  5.5 km/h
Wind Gust: 17 mph /  27.4 km/h - -
Wind:- - WSW
Pressure: 30.3 in /  1026.6 hPa 30.1 in /  1019.2 hPa -
Precipitation: 0.03 in /  0.8 mm    
Historical Graphs
 
 
Tabular Data for May 20, 2017
Time Temperature Dew Point Pressure Wind Wind Speed Wind Gust Humidity Rainfall Rate (Hourly)
00:02 46.6 °F /  8.1 °C 45.1 °F /  7.3 °C 30.1 in /  1019.2 hPa SSW 3 mph /  4.8 km/h 6 mph /  9.7 km/h 95 % 0 in /  0.0 mm
00:07 46.6 °F /  8.1 °C 45.1 °F /  7.3 °C 30.1 in /  1019.2 hPa SW 3 mph /  4.8 km/h 5 mph /  8.0 km/h 95 % 0 in /  0.0 mm
00:12 46.6 °F /  8.1 °C 45.1 °F /  7.3 °C 30.1 in /  1019.5 hPa SSW 2 mph /  3.2 km/h 5 mph /  8.0 km/h 95 % 0 in /  0.0 mm
00:17 46.6 °F /  8.1 °C 45.1 °F /  7.3 °C 30.1 in /  1019.5 hPa SW 1 mph /  1.6 km/h 5 mph /  8.0 km/h 95 % 0 in /  0.0 mm
00:22 46.6 °F /  8.1 °C 45.1 °F /  7.3 °C 30.1 in /  1019.5 hPa SSW 3 mph /  4.8 km/h 5 mph /  8.0 km/h 95 % 0 in /  0.0 mm
00:27 46.6 °F /  8.1 °C 45.1 °F /  7.3 °C 30.1 in /  1019.5 hPa SW 3 mph /  4.8 km/h 5 mph /  8.0 km/h 95 % 0 in /  0.0 mm
00:32 46.6 °F /  8.1 °C 45.1 °F /  7.3 °C 30.1 in /  1019.5 hPa SSW 3 mph /  4.8 km/h 6 mph /  9.7 km/h 95 % 0 in /  0.0 mm
00:37 46.6 °F /  8.1 °C 45.1 °F /  7.3 °C 30.1 in /  1019.5 hPa SW 4 mph /  6.4 km/h 6 mph /  9.7 km/h 95 % 0 in /  0.0 mm
00:42 46.6 °F /  8.1 °C 45.1 °F /  7.3 °C 30.1 in /  1019.5 hPa SSW 3 mph /  4.8 km/h 6 mph /  9.7 km/h 95 % 0 in /  0.0 mm
00:47 46.6 °F /  8.1 °C 45.1 °F /  7.3 °C 30.1 in /  1019.5 hPa South 2 mph /  3.2 km/h 6 mph /  9.7 km/h 95 % 0 in /  0.0 mm
00:52 46.8 °F /  8.2 °C 45.7 °F /  7.6 °C 30.1 in /  1019.5 hPa SSW 5 mph /  8.0 km/h 6 mph /  9.7 km/h 96 % 0 in /  0.0 mm
00:57 46.8 °F /  8.2 °C 45.7 °F /  7.6 °C 30.1 in /  1019.5 hPa SSW 4 mph /  6.4 km/h 7 mph /  11.3 km/h 96 % 0 in /  0.0 mm
01:02 46.8 °F /  8.2 °C 45.7 °F /  7.6 °C 30.1 in /  1019.5 hPa SSW 3 mph /  4.8 km/h 7 mph /  11.3 km/h 96 % 0 in /  0.0 mm
01:12 46.8 °F /  8.2 °C 45.3 °F /  7.4 °C 30.1 in /  1019.5 hPa SW 3 mph /  4.8 km/h 7 mph /  11.3 km/h 95 % 0 in /  0.0 mm
01:17 46.8 °F /  8.2 °C 45.3 °F /  7.4 °C 30.1 in /  1019.5 hPa SSW 2 mph /  3.2 km/h 7 mph /  11.3 km/h 95 % 0 in /  0.0 mm
01:22 46.6 °F /  8.1 °C 45.1 °F /  7.3 °C 30.1 in /  1019.5 hPa SW 6 mph /  9.7 km/h 7 mph /  11.3 km/h 95 % 0 in /  0.0 mm
01:32 46.2 °F /  7.9 °C 44.8 °F /  7.1 °C 30.1 in /  1019.5 hPa SW 3 mph /  4.8 km/h 6 mph /  9.7 km/h 95 % 0 in /  0.0 mm
01:42 46 °F /  7.8 °C 44.6 °F /  7.0 °C 30.1 in /  1019.5 hPa SSW 3 mph /  4.8 km/h 6 mph /  9.7 km/h 95 % 0 in /  0.0 mm
01:47 45.9 °F /  7.7 °C 44.4 °F /  6.9 °C 30.1 in /  1019.5 hPa South 3 mph /  4.8 km/h 5 mph /  8.0 km/h 95 % 0 in /  0.0 mm
01:52 45.9 °F /  7.7 °C 44.8 °F /  7.1 °C 30.1 in /  1019.5 hPa South 2 mph /  3.2 km/h 5 mph /  8.0 km/h 96 % 0 in /  0.0 mm
01:57 46 °F /  7.8 °C 45 °F /  7.2 °C 30.1 in /  1019.5 hPa SSW 1 mph /  1.6 km/h 7 mph /  11.3 km/h 96 % 0 in /  0.0 mm
02:02 45.9 °F /  7.7 °C 44.4 °F /  6.9 °C 30.1 in /  1019.5 hPa SSW 3 mph /  4.8 km/h 7 mph /  11.3 km/h 95 % 0 in /  0.0 mm
02:12 45.7 °F /  7.6 °C 44.4 °F /  6.9 °C 30.1 in /  1019.5 hPa SSW 2 mph /  3.2 km/h 8 mph /  12.9 km/h 95 % 0 in /  0.0 mm
02:17 45.7 °F /  7.6 °C 44.6 °F /  7.0 °C 30.1 in /  1019.9 hPa SW 5 mph /  8.0 km/h 8 mph /  12.9 km/h 96 % 0 in /  0.0 mm
02:22 45.9 °F /  7.7 °C 44.8 °F /  7.1 °C 30.1 in /  1019.5 hPa SW 3 mph /  4.8 km/h 8 mph /  12.9 km/h 96 % 0 in /  0.0 mm
02:32 45.9 °F /  7.7 °C 44.4 °F /  6.9 °C 30.1 in /  1019.9 hPa SSW 5 mph /  8.0 km/h 9 mph /  14.5 km/h 95 % 0 in /  0.0 mm
02:42 46 °F /  7.8 °C 44.6 °F /  7.0 °C 30.1 in /  1019.9 hPa SW 5 mph /  8.0 km/h 9 mph /  14.5 km/h 95 % 0.01 in /  0.3 mm
02:47 46 °F /  7.8 °C 44.6 °F /  7.0 °C 30.1 in /  1019.9 hPa SW 4 mph /  6.4 km/h 10 mph /  16.1 km/h 95 % 0.01 in /  0.3 mm
02:52 46 °F /  7.8 °C 44.6 °F /  7.0 °C 30.1 in /  1019.9 hPa SSW 4 mph /  6.4 km/h 10 mph /  16.1 km/h 95 % 0.01 in /  0.3 mm
02:57 46 °F /  7.8 °C 44.6 °F /  7.0 °C 30.1 in /  1019.9 hPa SW 4 mph /  6.4 km/h 9 mph /  14.5 km/h 95 % 0.01 in /  0.3 mm
03:02 46 °F /  7.8 °C 44.6 °F /  7.0 °C 30.1 in /  1019.9 hPa SW 6 mph /  9.7 km/h 9 mph /  14.5 km/h 95 % 0.01 in /  0.3 mm
03:12 46 °F /  7.8 °C 44.6 °F /  7.0 °C 30.1 in /  1019.9 hPa SSW 4 mph /  6.4 km/h 9 mph /  14.5 km/h 95 % 0.01 in /  0.3 mm
03:17 46 °F /  7.8 °C 44.6 °F /  7.0 °C 30.1 in /  1019.9 hPa SW 4 mph /  6.4 km/h 9 mph /  14.5 km/h 95 % 0.01 in /  0.3 mm
03:22 46.2 °F /  7.9 °C 44.8 °F /  7.1 °C 30.1 in /  1019.9 hPa SW 2 mph /  3.2 km/h 9 mph /  14.5 km/h 95 % 0.01 in /  0.3 mm
03:27 46.2 °F /  7.9 °C 44.8 °F /  7.1 °C 30.1 in /  1019.9 hPa SW 4 mph /  6.4 km/h 9 mph /  14.5 km/h 95 % 0.01 in /  0.3 mm
03:32 46.2 °F /  7.9 °C 44.8 °F /  7.1 °C 30.1 in /  1019.9 hPa SW 5 mph /  8.0 km/h 9 mph /  14.5 km/h 95 % 0 in /  0.0 mm
03:42 46.4 °F /  8.0 °C 45.3 °F /  7.4 °C 30.1 in /  1019.9 hPa SSW 3 mph /  4.8 km/h 8 mph /  12.9 km/h 96 % 0 in /  0.0 mm
03:47 46.6 °F /  8.1 °C 45.5 °F /  7.5 °C 30.1 in /  1019.9 hPa SSW 5 mph /  8.0 km/h 9 mph /  14.5 km/h 96 % 0 in /  0.0 mm
03:52 46.8 °F /  8.2 °C 45.7 °F /  7.6 °C 30.1 in /  1019.9 hPa WSW 4 mph /  6.4 km/h 9 mph /  14.5 km/h 96 % 0 in /  0.0 mm
03:57 46.9 °F /  8.3 °C 45.9 °F /  7.7 °C 30.1 in /  1019.9 hPa WSW 2 mph /  3.2 km/h 8 mph /  12.9 km/h 96 % 0 in /  0.0 mm
04:02 47.1 °F /  8.4 °C 46 °F /  7.8 °C 30.1 in /  1019.9 hPa SSW 3 mph /  4.8 km/h 8 mph /  12.9 km/h 96 % 0 in /  0.0 mm
04:12 47.3 °F /  8.5 °C 45.9 °F /  7.7 °C 30.1 in /  1020.2 hPa South 5 mph /  8.0 km/h 8 mph /  12.9 km/h 95 % 0 in /  0.0 mm
04:17 47.5 °F /  8.6 °C 46 °F /  7.8 °C 30.1 in /  1020.2 hPa SW 3 mph /  4.8 km/h 10 mph /  16.1 km/h 95 % 0 in /  0.0 mm
04:22 47.5 °F /  8.6 °C 46 °F /  7.8 °C 30.1 in /  1020.2 hPa WSW 6 mph /  9.7 km/h 10 mph /  16.1 km/h 95 % 0 in /  0.0 mm
04:27 47.5 °F /  8.6 °C 46 °F /  7.8 °C 30.1 in /  1020.2 hPa WSW 7 mph /  11.3 km/h 12 mph /  19.3 km/h 95 % 0 in /  0.0 mm
04:32 47.5 °F /  8.6 °C 46 °F /  7.8 °C 30.1 in /  1020.2 hPa SW 6 mph /  9.7 km/h 12 mph /  19.3 km/h 95 % 0 in /  0.0 mm
04:42 47.5 °F /  8.6 °C 46 °F /  7.8 °C 30.1 in /  1020.2 hPa SW 2 mph /  3.2 km/h 15 mph /  24.1 km/h 95 % 0 in /  0.0 mm
04:52 47.5 °F /  8.6 °C 46 °F /  7.8 °C 30.1 in /  1020.2 hPa SW 5 mph /  8.0 km/h 15 mph /  24.1 km/h 95 % 0 in /  0.0 mm
04:57 47.5 °F /  8.6 °C 46 °F /  7.8 °C 30.1 in /  1020.2 hPa WSW 4 mph /  6.4 km/h 10 mph /  16.1 km/h 95 % 0 in /  0.0 mm
05:02 47.5 °F /  8.6 °C 46 °F /  7.8 °C 30.1 in /  1020.2 hPa West 2 mph /  3.2 km/h 10 mph /  16.1 km/h 95 % 0 in /  0.0 mm
05:12 47.5 °F /  8.6 °C 46 °F /  7.8 °C 30.1 in /  1020.2 hPa West 7 mph /  11.3 km/h 9 mph /  14.5 km/h 95 % 0 in /  0.0 mm
05:17 47.5 °F /  8.6 °C 46 °F /  7.8 °C 30.1 in /  1020.2 hPa SW 6 mph /  9.7 km/h 11 mph /  17.7 km/h 95 % 0 in /  0.0 mm
05:22 47.5 °F /  8.6 °C 46 °F /  7.8 °C 30.1 in /  1020.2 hPa SW 6 mph /  9.7 km/h 11 mph /  17.7 km/h 95 % 0 in /  0.0 mm
05:32 47.5 °F /  8.6 °C 46 °F /  7.8 °C 30.1 in /  1020.2 hPa SSW 8 mph /  12.9 km/h 11 mph /  17.7 km/h 95 % 0 in /  0.0 mm
05:42 47.5 °F /  8.6 °C 46 °F /  7.8 °C 30.1 in /  1020.5 hPa West 10 mph /  16.1 km/h 11 mph /  17.7 km/h 95 % 0 in /  0.0 mm
05:52 47.5 °F /  8.6 °C 46 °F /  7.8 °C 30.1 in /  1020.5 hPa WSW 3 mph /  4.8 km/h 12 mph /  19.3 km/h 95 % 0 in /  0.0 mm
05:57 47.5 °F /  8.6 °C 46 °F /  7.8 °C 30.1 in /  1020.5 hPa WSW 3 mph /  4.8 km/h 12 mph /  19.3 km/h 95 % 0 in /  0.0 mm
06:02 47.5 °F /  8.6 °C 46 °F /  7.8 °C 30.1 in /  1020.5 hPa SW 4 mph /  6.4 km/h 12 mph /  19.3 km/h 95 % 0 in /  0.0 mm
06:07 47.5 °F /  8.6 °C 46 °F /  7.8 °C 30.1 in /  1020.5 hPa WSW 2 mph /  3.2 km/h 10 mph /  16.1 km/h 95 % 0 in /  0.0 mm
06:12 47.5 °F /  8.6 °C 46 °F /  7.8 °C 30.1 in /  1020.5 hPa West 4 mph /  6.4 km/h 10 mph /  16.1 km/h 95 % 0 in /  0.0 mm
06:17 47.5 °F /  8.6 °C 46 °F /  7.8 °C 30.2 in /  1020.9 hPa SSW 3 mph /  4.8 km/h 10 mph /  16.1 km/h 95 % 0 in /  0.0 mm
06:22 47.3 °F /  8.5 °C 45.9 °F /  7.7 °C 30.2 in /  1020.9 hPa WSW 6 mph /  9.7 km/h 10 mph /  16.1 km/h 95 % 0 in /  0.0 mm
06:32 47.3 °F /  8.5 °C 45.9 °F /  7.7 °C 30.2 in /  1020.9 hPa West 12 mph /  19.3 km/h 12 mph /  19.3 km/h 95 % 0 in /  0.0 mm
06:37 47.1 °F /  8.4 °C 45.7 °F /  7.6 °C 30.2 in /  1020.9 hPa WSW 3 mph /  4.8 km/h 12 mph /  19.3 km/h 95 % 0 in /  0.0 mm
06:42 47.3 °F /  8.5 °C 45.9 °F /  7.7 °C 30.2 in /  1021.2 hPa WSW 4 mph /  6.4 km/h 12 mph /  19.3 km/h 95 % 0 in /  0.0 mm
06:47 47.1 °F /  8.4 °C 45.7 °F /  7.6 °C 30.2 in /  1021.2 hPa WSW 3 mph /  4.8 km/h 12 mph /  19.3 km/h 95 % 0 in /  0.0 mm
06:52 47.1 °F /  8.4 °C 45.7 °F /  7.6 °C 30.2 in /  1021.2 hPa West 3 mph /  4.8 km/h 12 mph /  19.3 km/h 95 % 0 in /  0.0 mm
06:57 47.1 °F /  8.4 °C 45.7 °F /  7.6 °C 30.2 in /  1021.6 hPa WSW 3 mph /  4.8 km/h 11 mph /  17.7 km/h 95 % 0 in /  0.0 mm
07:02 47.1 °F /  8.4 °C 45.7 °F /  7.6 °C 30.2 in /  1021.6 hPa WSW 7 mph /  11.3 km/h 11 mph /  17.7 km/h 95 % 0 in /  0.0 mm
07:12 47.3 °F /  8.5 °C 45.9 °F /  7.7 °C 30.2 in /  1021.6 hPa SW 2 mph /  3.2 km/h 9 mph /  14.5 km/h 95 % 0 in /  0.0 mm
07:22 47.5 °F /  8.6 °C 46 °F /  7.8 °C 30.2 in /  1021.6 hPa WSW 1 mph /  1.6 km/h 11 mph /  17.7 km/h 95 % 0 in /  0.0 mm
07:32 47.5 °F /  8.6 °C 46 °F /  7.8 °C 30.2 in /  1021.9 hPa SSW 1 mph /  1.6 km/h 8 mph /  12.9 km/h 95 % 0 in /  0.0 mm
07:42 47.7 °F /  8.7 °C 46.2 °F /  7.9 °C 30.2 in /  1021.9 hPa SSE 3 mph /  4.8 km/h 7 mph /  11.3 km/h 95 % 0 in /  0.0 mm
07:47 47.7 °F /  8.7 °C 46.2 °F /  7.9 °C 30.2 in /  1021.9 hPa WSW 2 mph /  3.2 km/h 9 mph /  14.5 km/h 95 % 0 in /  0.0 mm
07:52 47.7 °F /  8.7 °C 46.2 °F /  7.9 °C 30.2 in /  1021.9 hPa West 5 mph /  8.0 km/h 9 mph /  14.5 km/h 95 % 0 in /  0.0 mm
08:02 48 °F /  8.9 °C 46.6 °F /  8.1 °C 30.2 in /  1021.9 hPa SW 4 mph /  6.4 km/h 9 mph /  14.5 km/h 95 % 0 in /  0.0 mm
08:12 48.2 °F /  9.0 °C 46.6 °F /  8.1 °C 30.2 in /  1022.2 hPa West 4 mph /  6.4 km/h 11 mph /  17.7 km/h 94 % 0 in /  0.0 mm
08:17 48.4 °F /  9.1 °C 46.8 °F /  8.2 °C 30.2 in /  1022.2 hPa WSW 4 mph /  6.4 km/h 9 mph /  14.5 km/h 94 % 0 in /  0.0 mm
08:22 48 °F /  8.9 °C 46 °F /  7.8 °C 30.2 in /  1022.2 hPa West 3 mph /  4.8 km/h 9 mph /  14.5 km/h 93 % 0 in /  0.0 mm
08:32 48 °F /  8.9 °C 46.4 °F /  8.0 °C 30.2 in /  1022.2 hPa WNW 2 mph /  3.2 km/h 11 mph /  17.7 km/h 94 % 0 in /  0.0 mm
08:42 48.2 °F /  9.0 °C 46.6 °F /  8.1 °C 30.2 in /  1022.2 hPa SSW 4 mph /  6.4 km/h 11 mph /  17.7 km/h 94 % 0 in /  0.0 mm
08:47 48.4 °F /  9.1 °C 46.8 °F /  8.2 °C 30.2 in /  1022.6 hPa WSW 2 mph /  3.2 km/h 9 mph /  14.5 km/h 94 % 0 in /  0.0 mm
08:52 48.6 °F /  9.2 °C 46.9 °F /  8.3 °C 30.2 in /  1022.6 hPa SW 6 mph /  9.7 km/h 9 mph /  14.5 km/h 94 % 0 in /  0.0 mm
08:57 48.6 °F /  9.2 °C 46.6 °F /  8.1 °C 30.2 in /  1022.6 hPa SW 3 mph /  4.8 km/h 9 mph /  14.5 km/h 93 % 0 in /  0.0 mm
09:02 48.4 °F /  9.1 °C 46.2 °F /  7.9 °C 30.2 in /  1022.6 hPa West 6 mph /  9.7 km/h 9 mph /  14.5 km/h 92 % 0 in /  0.0 mm
09:12 48.9 °F /  9.4 °C 46.8 °F /  8.2 °C 30.2 in /  1022.6 hPa West 4 mph /  6.4 km/h 14 mph /  22.5 km/h 92 % 0 in /  0.0 mm
09:17 49.1 °F /  9.5 °C 46.6 °F /  8.1 °C 30.2 in /  1022.6 hPa West 6 mph /  9.7 km/h 14 mph /  22.5 km/h 91 % 0 in /  0.0 mm
09:22 49.6 °F /  9.8 °C 47.5 °F /  8.6 °C 30.2 in /  1022.6 hPa West 5 mph /  8.0 km/h 14 mph /  22.5 km/h 92 % 0 in /  0.0 mm
09:32 50.2 °F /  10.1 °C 47.3 °F /  8.5 °C 30.2 in /  1022.9 hPa SW 5 mph /  8.0 km/h 12 mph /  19.3 km/h 90 % 0 in /  0.0 mm
09:37 50.2 °F /  10.1 °C 47.3 °F /  8.5 °C 30.2 in /  1022.9 hPa WSW 5 mph /  8.0 km/h 13 mph /  20.9 km/h 90 % 0 in /  0.0 mm
09:42 50.4 °F /  10.2 °C 47.5 °F /  8.6 °C 30.2 in /  1022.9 hPa SSW 5 mph /  8.0 km/h 13 mph /  20.9 km/h 90 % 0 in /  0.0 mm
09:52 51.1 °F /  10.6 °C 48 °F /  8.9 °C 30.2 in /  1022.9 hPa WSW 5 mph /  8.0 km/h 12 mph /  19.3 km/h 89 % 0 in /  0.0 mm
09:57 50.9 °F /  10.5 °C 47.5 °F /  8.6 °C 30.2 in /  1022.9 hPa SW 6 mph /  9.7 km/h 12 mph /  19.3 km/h 88 % 0 in /  0.0 mm
10:02 51.1 °F /  10.6 °C 47.7 °F /  8.7 °C 30.2 in /  1022.9 hPa West 8 mph /  12.9 km/h 12 mph /  19.3 km/h 88 % 0 in /  0.0 mm
10:12 52 °F /  11.1 °C 48.2 °F /  9.0 °C 30.2 in /  1023.2 hPa WSW 3 mph /  4.8 km/h 10 mph /  16.1 km/h 87 % 0 in /  0.0 mm
10:17 52.2 °F /  11.2 °C 48 °F /  8.9 °C 30.2 in /  1023.2 hPa SW 1 mph /  1.6 km/h 12 mph /  19.3 km/h 86 % 0 in /  0.0 mm
10:22 52.3 °F /  11.3 °C 48 °F /  8.9 °C 30.2 in /  1023.2 hPa WSW 5 mph /  8.0 km/h 12 mph /  19.3 km/h 85 % 0 in /  0.0 mm
10:32 53.2 °F /  11.8 °C 48.2 °F /  9.0 °C 30.2 in /  1023.2 hPa SW 7 mph /  11.3 km/h 10 mph /  16.1 km/h 83 % 0 in /  0.0 mm
10:37 54 °F /  12.2 °C 49.8 °F /  9.9 °C 30.2 in /  1023.2 hPa West 4 mph /  6.4 km/h 11 mph /  17.7 km/h 86 % 0 in /  0.0 mm
10:42 53.8 °F /  12.1 °C 48 °F /  8.9 °C 30.2 in /  1023.2 hPa West 9 mph /  14.5 km/h 11 mph /  17.7 km/h 81 % 0 in /  0.0 mm
10:47 54 °F /  12.2 °C 47.7 °F /  8.7 °C 30.2 in /  1023.2 hPa West 5 mph /  8.0 km/h 12 mph /  19.3 km/h 79 % 0 in /  0.0 mm
10:52 54.3 °F /  12.4 °C 48.2 °F /  9.0 °C 30.2 in /  1023.2 hPa SW 4 mph /  6.4 km/h 12 mph /  19.3 km/h 80 % 0 in /  0.0 mm
11:02 54.9 °F /  12.7 °C 47.1 °F /  8.4 °C 30.2 in /  1023.2 hPa West 7 mph /  11.3 km/h 12 mph /  19.3 km/h 75 % 0 in /  0.0 mm
11:12 55 °F /  12.8 °C 48 °F /  8.9 °C 30.2 in /  1023.2 hPa WSW 8 mph /  12.9 km/h 13 mph /  20.9 km/h 77 % 0 in /  0.0 mm
11:17 55.6 °F /  13.1 °C 48.9 °F /  9.4 °C 30.2 in /  1023.2 hPa SW 3 mph /  4.8 km/h 14 mph /  22.5 km/h 78 % 0 in /  0.0 mm
11:22 55.2 °F /  12.9 °C 46 °F /  7.8 °C 30.2 in /  1023.6 hPa West 5 mph /  8.0 km/h 14 mph /  22.5 km/h 71 % 0 in /  0.0 mm
11:32 56.3 °F /  13.5 °C 48.2 °F /  9.0 °C 30.2 in /  1023.6 hPa West 10 mph /  16.1 km/h 14 mph /  22.5 km/h 74 % 0 in /  0.0 mm
11:42 54.9 °F /  12.7 °C 47.5 °F /  8.6 °C 30.2 in /  1023.6 hPa WSW 5 mph /  8.0 km/h 10 mph /  16.1 km/h 76 % 0 in /  0.0 mm
11:47 54.5 °F /  12.5 °C 47.5 °F /  8.6 °C 30.2 in /  1023.9 hPa West 1 mph /  1.6 km/h 12 mph /  19.3 km/h 77 % 0 in /  0.0 mm
11:52 54.7 °F /  12.6 °C 47.7 °F /  8.7 °C 30.2 in /  1023.6 hPa SSW 4 mph /  6.4 km/h 12 mph /  19.3 km/h 77 % 0 in /  0.0 mm
11:57 54.7 °F /  12.6 °C 47.3 °F /  8.5 °C 30.2 in /  1023.6 hPa WSW 6 mph /  9.7 km/h 8 mph /  12.9 km/h 76 % 0 in /  0.0 mm
12:02 54.9 °F /  12.7 °C 48.2 °F /  9.0 °C 30.2 in /  1023.6 hPa WSW 7 mph /  11.3 km/h 8 mph /  12.9 km/h 78 % 0 in /  0.0 mm
12:12 56.5 °F /  13.6 °C 47.5 °F /  8.6 °C 30.2 in /  1023.6 hPa WSW 6 mph /  9.7 km/h 9 mph /  14.5 km/h 72 % 0 in /  0.0 mm
12:17 57 °F /  13.9 °C 47.3 °F /  8.5 °C 30.2 in /  1023.6 hPa SW 4 mph /  6.4 km/h 9 mph /  14.5 km/h 70 % 0 in /  0.0 mm
12:22 57 °F /  13.9 °C 46.2 °F /  7.9 °C 30.2 in /  1023.9 hPa WSW 3 mph /  4.8 km/h 12 mph /  19.3 km/h 67 % 0 in /  0.0 mm
12:27 57.6 °F /  14.2 °C 48.2 °F /  9.0 °C 30.2 in /  1023.9 hPa SW 4 mph /  6.4 km/h 12 mph /  19.3 km/h 71 % 0 in /  0.0 mm
12:32 57 °F /  13.9 °C 47.7 °F /  8.7 °C 30.2 in /  1023.9 hPa WSW 4 mph /  6.4 km/h 14 mph /  22.5 km/h 71 % 0 in /  0.0 mm
12:37 56.5 °F /  13.6 °C 47.5 °F /  8.6 °C 30.2 in /  1023.9 hPa West 8 mph /  12.9 km/h 14 mph /  22.5 km/h 72 % 0 in /  0.0 mm
12:42 55.9 °F /  13.3 °C 47.1 °F /  8.4 °C 30.2 in /  1023.9 hPa West 4 mph /  6.4 km/h 10 mph /  16.1 km/h 72 % 0 in /  0.0 mm
12:52 55.4 °F /  13.0 °C 47.7 °F /  8.7 °C 30.2 in /  1023.9 hPa West 5 mph /  8.0 km/h 10 mph /  16.1 km/h 75 % 0 in /  0.0 mm
13:02 55.6 °F /  13.1 °C 47.8 °F /  8.8 °C 30.2 in /  1023.9 hPa West 2 mph /  3.2 km/h 8 mph /  12.9 km/h 75 % 0 in /  0.0 mm
13:12 57 °F /  13.9 °C 48 °F /  8.9 °C 30.2 in /  1023.9 hPa WNW 5 mph /  8.0 km/h 7 mph /  11.3 km/h 72 % 0 in /  0.0 mm
13:17 57.4 °F /  14.1 °C 47.3 °F /  8.5 °C 30.2 in /  1023.9 hPa WNW 4 mph /  6.4 km/h 11 mph /  17.7 km/h 69 % 0 in /  0.0 mm
13:22 57.4 °F /  14.1 °C 47.3 °F /  8.5 °C 30.2 in /  1023.9 hPa West 5 mph /  8.0 km/h 11 mph /  17.7 km/h 69 % 0 in /  0.0 mm
13:32 57.4 °F /  14.1 °C 47.3 °F /  8.5 °C 30.2 in /  1023.9 hPa WSW 5 mph /  8.0 km/h 11 mph /  17.7 km/h 69 % 0 in /  0.0 mm
13:42 58.6 °F /  14.8 °C 47.3 °F /  8.5 °C 30.2 in /  1023.9 hPa SSW 3 mph /  4.8 km/h 9 mph /  14.5 km/h 66 % 0 in /  0.0 mm
13:52 58.8 °F /  14.9 °C 46.6 °F /  8.1 °C 30.3 in /  1024.3 hPa West 5 mph /  8.0 km/h 10 mph /  16.1 km/h 64 % 0 in /  0.0 mm
13:57 58.8 °F /  14.9 °C 47.5 °F /  8.6 °C 30.3 in /  1024.3 hPa WSW 7 mph /  11.3 km/h 10 mph /  16.1 km/h 66 % 0 in /  0.0 mm
14:02 59 °F /  15.0 °C 46.4 °F /  8.0 °C 30.2 in /  1023.9 hPa West 3 mph /  4.8 km/h 10 mph /  16.1 km/h 63 % 0 in /  0.0 mm
14:12 60.1 °F /  15.6 °C 46.6 °F /  8.1 °C 30.2 in /  1023.9 hPa West 4 mph /  6.4 km/h 9 mph /  14.5 km/h 61 % 0 in /  0.0 mm
14:17 60.3 °F /  15.7 °C 46.8 °F /  8.2 °C 30.2 in /  1023.9 hPa West 6 mph /  9.7 km/h 11 mph /  17.7 km/h 61 % 0 in /  0.0 mm
14:22 60.1 °F /  15.6 °C 46.9 °F /  8.3 °C 30.2 in /  1023.9 hPa SW 1 mph /  1.6 km/h 11 mph /  17.7 km/h 62 % 0 in /  0.0 mm
14:32 60.6 °F /  15.9 °C 46.2 °F /  7.9 °C 30.2 in /  1023.9 hPa WSW 1 mph /  1.6 km/h 11 mph /  17.7 km/h 59 % 0 in /  0.0 mm
14:42 60.6 °F /  15.9 °C 45.3 °F /  7.4 °C 30.2 in /  1023.9 hPa SW 3 mph /  4.8 km/h 7 mph /  11.3 km/h 57 % 0 in /  0.0 mm
14:52 61.2 °F /  16.2 °C 46.2 °F /  7.9 °C 30.2 in /  1023.9 hPa WSW 2 mph /  3.2 km/h 10 mph /  16.1 km/h 58 % 0 in /  0.0 mm
15:02 60.6 °F /  15.9 °C 45.7 °F /  7.6 °C 30.3 in /  1024.3 hPa WSW 5 mph /  8.0 km/h 10 mph /  16.1 km/h 58 % 0 in /  0.0 mm
15:12 60.8 °F /  16.0 °C 45.9 °F /  7.7 °C 30.3 in /  1024.3 hPa West 4 mph /  6.4 km/h 8 mph /  12.9 km/h 58 % 0 in /  0.0 mm
15:17 60.6 °F /  15.9 °C 46.6 °F /  8.1 °C 30.3 in /  1024.3 hPa SW 6 mph /  9.7 km/h 13 mph /  20.9 km/h 60 % 0 in /  0.0 mm
15:22 61.3 °F /  16.3 °C 47.3 °F /  8.5 °C 30.3 in /  1024.3 hPa WSW 4 mph /  6.4 km/h 13 mph /  20.9 km/h 60 % 0 in /  0.0 mm
15:32 62.2 °F /  16.8 °C 46.8 °F /  8.2 °C 30.3 in /  1024.3 hPa WSW 4 mph /  6.4 km/h 13 mph /  20.9 km/h 57 % 0 in /  0.0 mm
15:37 62.2 °F /  16.8 °C 46.4 °F /  8.0 °C 30.2 in /  1023.9 hPa WSW 7 mph /  11.3 km/h 11 mph /  17.7 km/h 56 % 0 in /  0.0 mm
15:42 62.1 °F /  16.7 °C 47.1 °F /  8.4 °C 30.2 in /  1023.9 hPa SW 6 mph /  9.7 km/h 11 mph /  17.7 km/h 58 % 0 in /  0.0 mm
15:47 61.9 °F /  16.6 °C 47.8 °F /  8.8 °C 30.3 in /  1024.3 hPa SSW 2 mph /  3.2 km/h 15 mph /  24.1 km/h 60 % 0 in /  0.0 mm
15:52 61.9 °F /  16.6 °C 49.1 °F /  9.5 °C 30.3 in /  1024.3 hPa ESE 3 mph /  4.8 km/h 15 mph /  24.1 km/h 63 % 0 in /  0.0 mm
15:57 61.7 °F /  16.5 °C 47.7 °F /  8.7 °C 30.3 in /  1024.3 hPa WSW 8 mph /  12.9 km/h 12 mph /  19.3 km/h 60 % 0 in /  0.0 mm
16:02 61.9 °F /  16.6 °C 48.2 °F /  9.0 °C 30.3 in /  1024.3 hPa WSW 3 mph /  4.8 km/h 12 mph /  19.3 km/h 61 % 0 in /  0.0 mm
16:07 61.9 °F /  16.6 °C 47.5 °F /  8.6 °C 30.2 in /  1023.9 hPa West 4 mph /  6.4 km/h 10 mph /  16.1 km/h 59 % 0 in /  0.0 mm
16:12 62.4 °F /  16.9 °C 50 °F /  10.0 °C 30.2 in /  1023.9 hPa SW 1 mph /  1.6 km/h 10 mph /  16.1 km/h 64 % 0 in /  0.0 mm
16:17 62.2 °F /  16.8 °C 47.7 °F /  8.7 °C 30.3 in /  1024.3 hPa SW 5 mph /  8.0 km/h 17 mph /  27.4 km/h 59 % 0 in /  0.0 mm
16:22 61.9 °F /  16.6 °C 46.9 °F /  8.3 °C 30.3 in /  1024.3 hPa SSE 2 mph /  3.2 km/h 17 mph /  27.4 km/h 58 % 0 in /  0.0 mm
16:32 62.1 °F /  16.7 °C 47.1 °F /  8.4 °C 30.3 in /  1024.3 hPa West 5 mph /  8.0 km/h 10 mph /  16.1 km/h 58 % 0 in /  0.0 mm
16:37 61.7 °F /  16.5 °C 47.3 °F /  8.5 °C 30.3 in /  1024.3 hPa SSE 5 mph /  8.0 km/h 9 mph /  14.5 km/h 59 % 0 in /  0.0 mm
16:42 62.1 °F /  16.7 °C 48 °F /  8.9 °C 30.3 in /  1024.3 hPa SW 4 mph /  6.4 km/h 9 mph /  14.5 km/h 60 % 0 in /  0.0 mm
16:47 62.4 °F /  16.9 °C 47.5 °F /  8.6 °C 30.3 in /  1024.3 hPa SW 4 mph /  6.4 km/h 7 mph /  11.3 km/h 58 % 0 in /  0.0 mm
16:52 62.8 °F /  17.1 °C 48.7 °F /  9.3 °C 30.3 in /  1024.3 hPa WSW 3 mph /  4.8 km/h 7 mph /  11.3 km/h 60 % 0 in /  0.0 mm
16:57 62.6 °F /  17.0 °C 47.1 °F /  8.4 °C 30.3 in /  1024.3 hPa SW 7 mph /  11.3 km/h 13 mph /  20.9 km/h 57 % 0 in /  0.0 mm
17:02 61.9 °F /  16.6 °C 46 °F /  7.8 °C 30.3 in /  1024.3 hPa WNW 5 mph /  8.0 km/h 13 mph /  20.9 km/h 56 % 0 in /  0.0 mm
17:12 62.2 °F /  16.8 °C 45 °F /  7.2 °C 30.3 in /  1024.6 hPa WNW 2 mph /  3.2 km/h 10 mph /  16.1 km/h 53 % 0 in /  0.0 mm
17:17 62.4 °F /  16.9 °C 46.6 °F /  8.1 °C 30.3 in /  1024.6 hPa SSW 5 mph /  8.0 km/h 14 mph /  22.5 km/h 56 % 0 in /  0.0 mm
17:22 63 °F /  17.2 °C 46.9 °F /  8.3 °C 30.3 in /  1024.6 hPa SW 2 mph /  3.2 km/h 14 mph /  22.5 km/h 56 % 0 in /  0.0 mm
17:32 63.1 °F /  17.3 °C 46.2 °F /  7.9 °C 30.3 in /  1024.6 hPa West 2 mph /  3.2 km/h 10 mph /  16.1 km/h 54 % 0 in /  0.0 mm
17:37 63.3 °F /  17.4 °C 46.9 °F /  8.3 °C 30.3 in /  1024.6 hPa WSW 6 mph /  9.7 km/h 10 mph /  16.1 km/h 55 % 0 in /  0.0 mm
17:42 63.3 °F /  17.4 °C 47.3 °F /  8.5 °C 30.3 in /  1024.3 hPa SSW 5 mph /  8.0 km/h 10 mph /  16.1 km/h 56 % 0 in /  0.0 mm
17:52 63.1 °F /  17.3 °C 46.8 °F /  8.2 °C 30.3 in /  1024.6 hPa South 6 mph /  9.7 km/h 11 mph /  17.7 km/h 55 % 0 in /  0.0 mm
18:02 62.8 °F /  17.1 °C 45.3 °F /  7.4 °C 30.3 in /  1024.6 hPa SW 7 mph /  11.3 km/h 10 mph /  16.1 km/h 53 % 0 in /  0.0 mm
18:12 63 °F /  17.2 °C 46.6 °F /  8.1 °C 30.3 in /  1024.6 hPa SSW 4 mph /  6.4 km/h 12 mph /  19.3 km/h 55 % 0 in /  0.0 mm
18:17 63.1 °F /  17.3 °C 48.6 °F /  9.2 °C 30.3 in /  1024.6 hPa SSW 6 mph /  9.7 km/h 12 mph /  19.3 km/h 59 % 0 in /  0.0 mm
18:22 62.8 °F /  17.1 °C 48.7 °F /  9.3 °C 30.3 in /  1024.6 hPa SW 5 mph /  8.0 km/h 11 mph /  17.7 km/h 60 % 0 in /  0.0 mm
18:27 62.1 °F /  16.7 °C 48.9 °F /  9.4 °C 30.3 in /  1024.6 hPa SW 2 mph /  3.2 km/h 11 mph /  17.7 km/h 62 % 0 in /  0.0 mm
18:32 61.5 °F /  16.4 °C 49.3 °F /  9.6 °C 30.3 in /  1024.6 hPa WSW 3 mph /  4.8 km/h 12 mph /  19.3 km/h 64 % 0 in /  0.0 mm
18:37 61 °F /  16.1 °C 49.1 °F /  9.5 °C 30.3 in /  1024.9 hPa WSW 7 mph /  11.3 km/h 12 mph /  19.3 km/h 65 % 0 in /  0.0 mm
18:42 60.6 °F /  15.9 °C 49.3 °F /  9.6 °C 30.3 in /  1024.9 hPa SW 1 mph /  1.6 km/h 11 mph /  17.7 km/h 66 % 0 in /  0.0 mm
18:47 60.4 °F /  15.8 °C 49.8 °F /  9.9 °C 30.3 in /  1024.9 hPa West 4 mph /  6.4 km/h 10 mph /  16.1 km/h 68 % 0 in /  0.0 mm
18:52 60.1 °F /  15.6 °C 49.5 °F /  9.7 °C 30.3 in /  1024.9 hPa WNW 7 mph /  11.3 km/h 10 mph /  16.1 km/h 68 % 0 in /  0.0 mm
18:57 59.2 °F /  15.1 °C 50.2 °F /  10.1 °C 30.3 in /  1025.3 hPa WSW 4 mph /  6.4 km/h 14 mph /  22.5 km/h 72 % 0 in /  0.0 mm
19:02 57.4 °F /  14.1 °C 49.1 °F /  9.5 °C 30.3 in /  1025.3 hPa WNW 9 mph /  14.5 km/h 14 mph /  22.5 km/h 74 % 0 in /  0.0 mm
19:12 54.9 °F /  12.7 °C 49.8 °F /  9.9 °C 30.3 in /  1025.3 hPa WNW 5 mph /  8.0 km/h 14 mph /  22.5 km/h 83 % 0.02 in /  0.5 mm
19:17 54.3 °F /  12.4 °C 49.6 °F /  9.8 °C 30.3 in /  1025.3 hPa North 2 mph /  3.2 km/h 12 mph /  19.3 km/h 84 % 0.02 in /  0.5 mm
19:22 54.1 °F /  12.3 °C 49.8 °F /  9.9 °C 30.3 in /  1025.3 hPa NNW 2 mph /  3.2 km/h 12 mph /  19.3 km/h 85 % 0.02 in /  0.5 mm
19:32 54 °F /  12.2 °C 49.8 °F /  9.9 °C 30.3 in /  1025.3 hPa NNW 2 mph /  3.2 km/h 9 mph /  14.5 km/h 86 % 0.02 in /  0.5 mm
19:42 54.7 °F /  12.6 °C 50.5 °F /  10.3 °C 30.3 in /  1025.3 hPa NNW 1 mph /  1.6 km/h 4 mph /  6.4 km/h 86 % 0.02 in /  0.5 mm
19:47 55.6 °F /  13.1 °C 51.1 °F /  10.6 °C 30.3 in /  1025.3 hPa NNW 1 mph /  1.6 km/h 4 mph /  6.4 km/h 85 % 0.02 in /  0.5 mm
19:52 56.3 °F /  13.5 °C 51.8 °F /  11.0 °C 30.3 in /  1025.3 hPa Calm   4 mph /  6.4 km/h 85 % 0.02 in /  0.5 mm
20:02 57.6 °F /  14.2 °C 51.8 °F /  11.0 °C 30.3 in /  1025.3 hPa Calm   3 mph /  4.8 km/h 81 % 0.02 in /  0.5 mm
20:07 58.5 °F /  14.7 °C 52.3 °F /  11.3 °C 30.3 in /  1025.3 hPa Calm   2 mph /  3.2 km/h 80 % 0.02 in /  0.5 mm
20:12 59.2 °F /  15.1 °C 51.6 °F /  10.9 °C 30.3 in /  1025.6 hPa WNW 1 mph /  1.6 km/h 2 mph /  3.2 km/h 76 % 0.01 in /  0.3 mm
20:17 59 °F /  15.0 °C 51.8 °F /  11.0 °C 30.3 in /  1025.6 hPa Calm   2 mph /  3.2 km/h 77 % 0 in /  0.0 mm
20:22 59.5 °F /  15.3 °C 52 °F /  11.1 °C 30.3 in /  1025.6 hPa Calm   2 mph /  3.2 km/h 76 % 0 in /  0.0 mm
20:27 59.5 °F /  15.3 °C 52.3 °F /  11.3 °C 30.3 in /  1025.6 hPa Calm   2 mph /  3.2 km/h 77 % 0 in /  0.0 mm
20:32 59.2 °F /  15.1 °C 51.6 °F /  10.9 °C 30.3 in /  1025.6 hPa Calm   2 mph /  3.2 km/h 76 % 0 in /  0.0 mm
20:42 59.2 °F /  15.1 °C 50.9 °F /  10.5 °C 30.3 in /  1025.6 hPa Calm   1 mph /  1.6 km/h 74 % 0 in /  0.0 mm
20:47 58.8 °F /  14.9 °C 51.6 °F /  10.9 °C 30.3 in /  1025.6 hPa Calm   1 mph /  1.6 km/h 77 % 0 in /  0.0 mm
20:52 57.7 °F /  14.3 °C 50.9 °F /  10.5 °C 30.3 in /  1025.6 hPa Calm   1 mph /  1.6 km/h 78 % 0 in /  0.0 mm
20:57 56.7 °F /  13.7 °C 51.3 °F /  10.7 °C 30.3 in /  1026.0 hPa Calm     82 % 0 in /  0.0 mm
21:02 55.4 °F /  13.0 °C 50.4 °F /  10.2 °C 30.3 in /  1026.0 hPa Calm     83 % 0 in /  0.0 mm
21:12 54 °F /  12.2 °C 50.2 °F /  10.1 °C 30.3 in /  1026.0 hPa Calm   1 mph /  1.6 km/h 87 % 0 in /  0.0 mm
21:17 53.6 °F /  12.0 °C 50.4 °F /  10.2 °C 30.3 in /  1026.0 hPa Calm     89 % 0 in /  0.0 mm
21:22 52.9 °F /  11.6 °C 49.6 °F /  9.8 °C 30.3 in /  1026.0 hPa Calm     89 % 0 in /  0.0 mm
21:27 52.5 °F /  11.4 °C 49.6 °F /  9.8 °C 30.3 in /  1026.0 hPa Calm     90 % 0 in /  0.0 mm
21:32 52.2 °F /  11.2 °C 49.6 °F /  9.8 °C 30.3 in /  1026.0 hPa Calm     91 % 0 in /  0.0 mm
21:37 52 °F /  11.1 °C 49.5 °F /  9.7 °C 30.3 in /  1026.0 hPa WNW 1 mph /  1.6 km/h   91 % 0 in /  0.0 mm
21:42 51.6 °F /  10.9 °C 49.1 °F /  9.5 °C 30.3 in /  1026.0 hPa Calm     91 % 0 in /  0.0 mm
21:52 51.4 °F /  10.8 °C 49.3 °F /  9.6 °C 30.3 in /  1026.3 hPa Calm   1 mph /  1.6 km/h 92 % 0 in /  0.0 mm
21:57 51.3 °F /  10.7 °C 49.1 °F /  9.5 °C 30.3 in /  1026.3 hPa Calm   1 mph /  1.6 km/h 92 % 0 in /  0.0 mm
22:02 51.1 °F /  10.6 °C 49.1 °F /  9.5 °C 30.3 in /  1026.3 hPa Calm   1 mph /  1.6 km/h 93 % 0 in /  0.0 mm
22:12 51.1 °F /  10.6 °C 49.1 °F /  9.5 °C 30.3 in /  1026.3 hPa Calm   1 mph /  1.6 km/h 93 % 0 in /  0.0 mm
22:17 50.9 °F /  10.5 °C 48.9 °F /  9.4 °C 30.3 in /  1026.3 hPa Calm   1 mph /  1.6 km/h 93 % 0 in /  0.0 mm
22:22 50.7 °F /  10.4 °C 48.7 °F /  9.3 °C 30.3 in /  1026.3 hPa WNW 1 mph /  1.6 km/h 1 mph /  1.6 km/h 93 % 0 in /  0.0 mm
22:32 50.4 °F /  10.2 °C 48.4 °F /  9.1 °C 30.3 in /  1026.6 hPa Calm   2 mph /  3.2 km/h 93 % 0 in /  0.0 mm
22:37 50.2 °F /  10.1 °C 48.2 °F /  9.0 °C 30.3 in /  1026.6 hPa Calm   2 mph /  3.2 km/h 93 % 0 in /  0.0 mm
22:42 50.2 °F /  10.1 °C 48.6 °F /  9.2 °C 30.3 in /  1026.6 hPa Calm   2 mph /  3.2 km/h 94 % 0 in /  0.0 mm
22:52 49.8 °F /  9.9 °C 48.2 °F /  9.0 °C 30.3 in /  1026.6 hPa Calm   1 mph /  1.6 km/h 94 % 0 in /  0.0 mm
22:57 49.8 °F /  9.9 °C 48.4 °F /  9.1 °C 30.3 in /  1026.6 hPa Calm   1 mph /  1.6 km/h 95 % 0 in /  0.0 mm
23:02 49.8 °F /  9.9 °C 48.2 °F /  9.0 °C 30.3 in /  1026.6 hPa Calm   1 mph /  1.6 km/h 94 % 0 in /  0.0 mm
23:12 49.5 °F /  9.7 °C 47.8 °F /  8.8 °C 30.3 in /  1026.6 hPa Calm     94 % 0 in /  0.0 mm
23:17 48.9 °F /  9.4 °C 47.3 °F /  8.5 °C 30.3 in /  1026.6 hPa North 1 mph /  1.6 km/h 1 mph /  1.6 km/h 94 % 0 in /  0.0 mm
23:22 48.9 °F /  9.4 °C 47.5 °F /  8.6 °C 30.3 in /  1026.6 hPa Calm   1 mph /  1.6 km/h 95 % 0 in /  0.0 mm
23:27 48.7 °F /  9.3 °C 47.3 °F /  8.5 °C 30.3 in /  1026.6 hPa Calm   1 mph /  1.6 km/h 95 % 0 in /  0.0 mm
23:32 48.7 °F /  9.3 °C 47.3 °F /  8.5 °C 30.3 in /  1026.6 hPa Calm   1 mph /  1.6 km/h 95 % 0 in /  0.0 mm
23:37 48.7 °F /  9.3 °C 47.3 °F /  8.5 °C 30.3 in /  1026.6 hPa Calm   1 mph /  1.6 km/h 95 % 0 in /  0.0 mm
23:42 48.6 °F /  9.2 °C 47.1 °F /  8.4 °C 30.3 in /  1026.6 hPa Calm   1 mph /  1.6 km/h 95 % 0 in /  0.0 mm
23:52 48 °F /  8.9 °C 46.6 °F /  8.1 °C 30.3 in /  1026.6 hPa Calm     95 % 0 in /  0.0 mm
Meteo18
Compliments of Weather Underground - 4 mb

Script developed by  Jim McMurry - jmcmurry@mwt.net Adapted for the template by  Wim van der Kuil - Leuven-Template.eu

You find our weather info also at:

European Weather Network

Weather Underground

Equipment we use:

Weather-station
Davis Vue

Weather-program
Meteohub

Weather-server
Raspberry PI 2 B+

Provider
1 and 1

Davis Vue

Meteohub

Raspberry PI 2 B+

1 and 1